createdAt,value
2023-05-14T00:00:39.845Z,180.65
2023-05-14T00:03:07.010Z,178.70
2023-05-14T00:05:33.652Z,214.27
2023-05-14T00:08:00.214Z,179.70
2023-05-14T00:10:27.414Z,216.05
2023-05-14T00:12:53.980Z,186.32
2023-05-14T00:15:20.594Z,195.52
2023-05-14T00:17:47.204Z,184.90
2023-05-14T00:20:13.915Z,211.35
2023-05-14T00:22:40.868Z,185.68
2023-05-14T00:25:08.391Z,179.77
2023-05-14T00:27:36.064Z,178.07
2023-05-14T00:30:02.744Z,184.10
2023-05-14T00:32:29.254Z,182.80
2023-05-14T00:34:55.758Z,204.60
2023-05-14T00:37:22.521Z,212.43
2023-05-14T00:39:49.073Z,191.73
2023-05-14T00:42:15.614Z,220.98
2023-05-14T00:44:42.159Z,200.02
2023-05-14T00:47:08.784Z,186.93
2023-05-14T00:49:35.779Z,208.93
2023-05-14T00:52:02.666Z,208.02
2023-05-14T00:54:29.255Z,215.45
2023-05-14T00:56:56.093Z,213.57
2023-05-14T00:59:22.650Z,206.20
2023-05-14T01:01:49.254Z,209.43
2023-05-14T01:04:15.956Z,180.05
2023-05-14T01:07:09.830Z,201.23
2023-05-14T01:10:04.054Z,208.05
2023-05-14T01:12:37.403Z,212.88
2023-05-14T01:15:22.145Z,224.43
2023-05-14T01:17:53.772Z,208.43
2023-05-14T01:20:20.472Z,213.98
2023-05-14T01:22:47.764Z,215.65
2023-05-14T01:25:14.320Z,215.93
2023-05-14T01:27:43.907Z,215.80
2023-05-14T01:30:18.820Z,212.98
2023-05-14T01:32:48.731Z,214.93
2023-05-14T01:35:15.897Z,211.65
2023-05-14T01:37:43.863Z,212.40
2023-05-14T01:40:12.054Z,202.35
2023-05-14T01:42:38.567Z,207.45
2023-05-14T01:45:05.846Z,210.27
2023-05-14T01:47:32.415Z,205.77
2023-05-14T01:49:58.937Z,203.70
2023-05-14T01:52:25.438Z,203.68
2023-05-14T01:54:52.452Z,202.10
2023-05-14T01:57:19.168Z,197.57
2023-05-14T01:59:45.979Z,195.35
2023-05-14T02:02:12.529Z,191.55
2023-05-14T02:04:39.433Z,197.30
2023-05-14T02:07:05.966Z,198.38
2023-05-14T02:09:32.513Z,203.05
2023-05-14T02:11:59.056Z,210.98
2023-05-14T02:14:25.663Z,197.68
2023-05-14T02:16:52.156Z,197.70
2023-05-14T02:19:18.852Z,194.55
2023-05-14T02:21:45.802Z,187.05
2023-05-14T02:24:12.811Z,188.27
2023-05-14T02:26:39.330Z,186.98
2023-05-14T02:29:05.979Z,189.65
2023-05-14T02:31:32.561Z,187.20
2023-05-14T02:33:59.056Z,190.15
2023-05-14T02:36:25.915Z,187.70
2023-05-14T02:38:52.384Z,186.98
2023-05-14T02:41:19.014Z,186.35
2023-05-14T02:43:46.264Z,186.65
2023-05-14T02:46:13.811Z,183.38
2023-05-14T02:48:40.850Z,182.00
2023-05-14T02:51:07.808Z,183.90
2023-05-14T02:53:34.274Z,180.70
2023-05-14T02:56:00.827Z,185.38
2023-05-14T02:58:28.642Z,185.60
2023-05-14T03:03:22.547Z,191.10
2023-05-14T03:05:49.615Z,191.07
2023-05-14T03:08:16.127Z,187.57
2023-05-14T03:10:42.681Z,190.02
2023-05-14T03:13:09.222Z,189.25
2023-05-14T03:15:35.710Z,190.18
2023-05-14T03:18:02.280Z,189.93
2023-05-14T03:20:28.863Z,191.30
2023-05-14T03:22:56.129Z,189.20
2023-05-14T03:25:22.801Z,185.25
2023-05-14T03:27:49.304Z,186.48
2023-05-14T03:30:15.974Z,185.70
2023-05-14T03:32:42.996Z,119.40
2023-05-14T03:35:09.623Z,117.20
2023-05-14T03:37:36.331Z,120.60
2023-05-14T03:40:02.901Z,184.55
2023-05-14T03:42:29.566Z,184.55
2023-05-14T03:44:56.046Z,127.53
2023-05-14T03:47:22.582Z,157.32
2023-05-14T03:49:49.194Z,135.35
2023-05-14T03:52:16.170Z,138.30
2023-05-14T03:54:44.124Z,155.00
2023-05-14T03:57:10.599Z,186.70
2023-05-14T03:59:37.066Z,140.30
2023-05-14T04:02:03.673Z,162.93
2023-05-14T04:04:30.317Z,153.48
2023-05-14T04:06:56.824Z,164.57
2023-05-14T04:09:23.437Z,168.43
2023-05-14T04:11:51.003Z,177.32
2023-05-14T04:14:17.582Z,181.85
2023-05-14T04:16:44.962Z,182.35
2023-05-14T04:19:11.711Z,162.88
2023-05-14T04:21:38.315Z,179.43
2023-05-14T04:24:05.074Z,169.25
2023-05-14T04:26:31.567Z,177.40
2023-05-14T04:29:01.213Z,171.38
2023-05-14T04:31:27.724Z,180.70
2023-05-14T04:33:54.728Z,159.45
2023-05-14T04:36:21.206Z,182.30
2023-05-14T04:38:47.684Z,172.95
2023-05-14T04:41:14.175Z,183.38
2023-05-14T04:43:40.650Z,185.00
2023-05-14T04:46:07.180Z,187.43
2023-05-14T04:48:33.728Z,187.68
2023-05-14T04:51:00.331Z,189.57
2023-05-14T04:53:26.979Z,187.77
2023-05-14T04:55:54.185Z,188.80
2023-05-14T04:58:20.677Z,190.88
2023-05-14T05:00:47.163Z,188.32
2023-05-14T05:03:13.712Z,187.27
2023-05-14T05:05:40.353Z,188.63
2023-05-14T05:08:06.963Z,189.38
2023-05-14T05:10:33.462Z,189.40
2023-05-14T05:13:00.553Z,191.77
2023-05-14T05:15:27.230Z,193.00
2023-05-14T05:17:53.908Z,190.85
2023-05-14T05:20:20.621Z,195.35
2023-05-14T05:22:47.198Z,197.82
2023-05-14T05:25:13.650Z,198.18
2023-05-14T05:27:40.169Z,195.02
2023-05-14T05:30:07.368Z,194.63
2023-05-14T05:32:34.379Z,188.93
2023-05-14T05:35:01.343Z,189.57
2023-05-14T05:37:27.855Z,187.82
2023-05-14T05:39:54.407Z,186.13
2023-05-14T05:42:20.889Z,200.43
2023-05-14T05:44:47.350Z,210.27
2023-05-14T05:47:13.787Z,215.45
2023-05-14T05:49:40.273Z,209.07
2023-05-14T05:52:06.932Z,215.77
2023-05-14T05:54:33.478Z,215.48
2023-05-14T05:57:00.685Z,218.85
2023-05-14T05:59:27.182Z,232.93
2023-05-14T06:01:53.777Z,231.10
2023-05-14T06:04:20.276Z,233.77
2023-05-14T06:06:46.959Z,228.93
2023-05-14T06:09:13.498Z,231.70
2023-05-14T06:11:39.960Z,235.27
2023-05-14T06:14:06.677Z,243.80
2023-05-14T06:16:33.333Z,247.55
2023-05-14T06:18:59.817Z,248.50
2023-05-14T06:21:26.304Z,249.70
2023-05-14T06:23:52.788Z,243.02
2023-05-14T06:26:19.301Z,246.35
2023-05-14T06:28:45.805Z,251.30
2023-05-14T06:31:12.459Z,245.43
2023-05-14T06:33:39.140Z,259.63
2023-05-14T06:36:06.759Z,258.30
2023-05-14T06:38:33.469Z,261.08
2023-05-14T06:41:00.001Z,261.80
2023-05-14T06:43:26.555Z,260.05
2023-05-14T06:45:53.050Z,266.23
2023-05-14T06:48:19.960Z,259.85
2023-05-14T06:50:47.540Z,264.92
2023-05-14T06:53:14.351Z,268.30
2023-05-14T06:55:40.917Z,268.02
2023-05-14T06:58:07.901Z,279.05
2023-05-14T07:00:34.646Z,280.15
2023-05-14T07:03:01.176Z,281.20
2023-05-14T07:05:27.711Z,285.05
2023-05-14T07:07:54.187Z,259.23
2023-05-14T07:10:20.818Z,215.30
2023-05-14T07:12:47.795Z,205.00
2023-05-14T07:15:14.278Z,191.02
2023-05-14T07:17:40.990Z,175.65
2023-05-14T07:20:08.123Z,174.52
2023-05-14T07:22:34.588Z,173.27
2023-05-14T07:25:01.291Z,170.65
2023-05-14T07:27:27.813Z,167.93
2023-05-14T07:29:54.300Z,160.05
2023-05-14T07:32:20.819Z,163.00
2023-05-14T07:34:47.530Z,144.10
2023-05-14T07:37:14.022Z,154.07
2023-05-14T07:39:41.648Z,159.15
2023-05-14T07:42:08.258Z,168.35
2023-05-14T07:44:34.815Z,179.15
2023-05-14T07:47:01.323Z,179.68
2023-05-14T07:49:27.803Z,166.05
2023-05-14T07:51:54.262Z,164.88
2023-05-14T07:54:20.826Z,182.63
2023-05-14T07:56:47.303Z,188.23
2023-05-14T07:59:14.020Z,187.10
2023-05-14T08:01:40.613Z,193.27
2023-05-14T08:04:07.257Z,196.40
2023-05-14T08:06:34.048Z,211.85
2023-05-14T08:09:00.652Z,202.82
2023-05-14T08:11:27.154Z,208.18
2023-05-14T08:13:53.648Z,211.45
2023-05-14T08:16:20.584Z,227.68
2023-05-14T08:18:47.161Z,230.23
2023-05-14T08:21:13.647Z,226.85
2023-05-14T08:23:40.349Z,236.02
2023-05-14T08:26:07.190Z,243.43
2023-05-14T08:28:33.759Z,244.82
2023-05-14T08:31:00.280Z,239.55
2023-05-14T08:33:26.798Z,240.38
2023-05-14T08:35:53.379Z,249.68
2023-05-14T08:38:19.872Z,256.02
2023-05-14T08:40:53.980Z,255.75
2023-05-14T08:43:24.573Z,255.05
2023-05-14T08:45:54.347Z,258.55
2023-05-14T08:48:23.027Z,262.83
2023-05-14T08:50:49.666Z,256.45
2023-05-14T08:53:16.188Z,251.10
2023-05-14T08:55:43.044Z,256.73
2023-05-14T08:58:09.630Z,263.55
2023-05-14T09:00:36.125Z,253.82
2023-05-14T09:03:04.155Z,254.88
2023-05-14T09:05:30.805Z,250.38
2023-05-14T09:07:57.305Z,252.13
2023-05-14T09:10:24.084Z,253.65
2023-05-14T09:12:51.636Z,252.35
2023-05-14T09:15:18.399Z,259.58
2023-05-14T09:17:46.457Z,258.20
2023-05-14T09:20:13.087Z,258.95
2023-05-14T09:22:39.936Z,261.23
2023-05-14T09:25:09.432Z,277.05
2023-05-14T09:27:36.424Z,290.13
2023-05-14T09:30:11.082Z,284.17
2023-05-14T09:32:44.035Z,283.38
2023-05-14T09:35:17.051Z,281.60
2023-05-14T09:37:48.909Z,290.52
2023-05-14T09:40:16.356Z,307.10
2023-05-14T09:45:10.144Z,335.33
2023-05-14T09:47:38.103Z,304.15
2023-05-14T09:50:05.660Z,427.15
2023-05-14T09:52:32.864Z,439.48
2023-05-14T09:55:00.298Z,420.98
2023-05-14T09:57:27.294Z,391.15
2023-05-14T09:59:54.124Z,434.15
2023-05-14T10:02:36.670Z,420.30
2023-05-14T10:05:04.824Z,435.40
2023-05-14T10:07:38.890Z,559.05
2023-05-14T10:12:34.741Z,511.80
2023-05-14T10:15:03.597Z,522.92
2023-05-14T10:17:32.488Z,515.30
2023-05-14T10:19:59.988Z,540.00
2023-05-14T10:22:31.896Z,559.20
2023-05-14T10:24:58.556Z,560.15
2023-05-14T10:27:25.657Z,534.58
2023-05-14T10:29:56.732Z,540.88
2023-05-14T10:32:25.592Z,440.65
2023-05-14T10:34:53.510Z,406.85
2023-05-14T10:37:26.484Z,445.27
2023-05-14T10:39:54.443Z,486.42
2023-05-14T10:42:27.179Z,478.95
2023-05-14T10:44:57.970Z,474.88
2023-05-14T10:47:35.646Z,484.80
2023-05-14T10:50:04.720Z,535.40
2023-05-14T10:52:31.328Z,518.10
2023-05-14T10:55:03.600Z,470.05
2023-05-14T10:57:31.999Z,434.30
2023-05-14T11:02:26.977Z,466.77
2023-05-14T11:04:59.217Z,459.63
2023-05-14T11:07:33.905Z,498.33
2023-05-14T11:10:02.760Z,495.30
2023-05-14T11:12:29.313Z,523.97
2023-05-14T11:14:59.552Z,534.40
2023-05-14T11:17:30.721Z,584.10
2023-05-14T11:19:57.779Z,582.65
2023-05-14T11:22:24.668Z,524.05
2023-05-14T11:24:51.443Z,796.97
2023-05-14T11:27:18.984Z,571.15
2023-05-14T11:37:10.192Z,201.43
2023-05-14T11:39:39.998Z,612.70
2023-05-14T12:09:19.901Z,825.58
2023-05-14T12:11:46.846Z,119.90
2023-05-14T12:14:20.615Z,146.25
2023-05-14T12:16:47.887Z,47.20
2023-05-14T12:19:15.470Z,43.13
2023-05-14T12:24:13.244Z,44.60
2023-05-14T12:26:41.017Z,40.97
2023-05-14T12:29:07.682Z,42.20
2023-05-14T12:31:36.419Z,114.90
2023-05-14T12:34:03.957Z,112.30
2023-05-14T12:36:32.434Z,114.40
2023-05-14T12:39:03.992Z,114.90
2023-05-14T12:41:31.166Z,113.30
2023-05-14T12:43:58.257Z,112.40
2023-05-14T12:46:26.073Z,113.80
2023-05-14T12:48:53.616Z,111.30
2023-05-14T12:51:20.294Z,117.40
2023-05-14T12:53:46.795Z,296.70
2023-05-14T12:56:13.378Z,119.13
2023-05-14T12:58:40.185Z,135.30
2023-05-14T13:01:06.858Z,120.75
2023-05-14T13:03:33.515Z,116.50
2023-05-14T13:06:00.171Z,119.70
2023-05-14T13:08:26.729Z,126.50
2023-05-14T13:10:54.028Z,120.45
2023-05-14T13:13:20.637Z,122.10
2023-05-14T13:15:47.238Z,122.60
2023-05-14T13:18:14.348Z,118.83
2023-05-14T13:20:43.092Z,119.95
2023-05-14T13:23:09.860Z,119.23
2023-05-14T13:25:36.417Z,120.60
2023-05-14T13:28:02.990Z,116.25
2023-05-14T13:30:29.843Z,118.40
2023-05-14T13:32:56.336Z,115.45
2023-05-14T13:35:23.057Z,115.60
2023-05-14T13:37:49.892Z,119.03
2023-05-14T13:40:17.260Z,118.05
2023-05-14T13:42:44.006Z,116.10
2023-05-14T13:45:11.733Z,115.90
2023-05-14T13:47:40.127Z,117.60
2023-05-14T13:50:07.300Z,115.60
2023-05-14T13:52:34.324Z,110.70
2023-05-14T13:55:00.883Z,112.40
2023-05-14T13:57:27.320Z,119.20
2023-05-14T13:59:53.824Z,116.60
2023-05-14T14:02:20.357Z,138.55
2023-05-14T14:04:46.903Z,136.37
2023-05-14T14:07:13.406Z,136.30
2023-05-14T14:09:39.863Z,133.95
2023-05-14T14:12:06.754Z,135.00
2023-05-14T14:14:33.386Z,132.25
2023-05-14T14:17:00.087Z,131.50
2023-05-14T14:19:26.620Z,140.75
2023-05-14T14:21:53.374Z,144.60
2023-05-14T14:24:20.221Z,130.15
2023-05-14T14:26:46.760Z,133.30
2023-05-14T14:29:13.242Z,134.20
2023-05-14T14:31:39.823Z,133.20
2023-05-14T14:34:06.379Z,161.63
2023-05-14T14:36:32.949Z,153.63
2023-05-14T14:38:59.495Z,155.65
2023-05-14T14:41:26.628Z,152.75
2023-05-14T14:43:53.189Z,157.10
2023-05-14T14:46:20.047Z,137.90
2023-05-14T14:48:46.592Z,148.70
2023-05-14T14:51:13.106Z,140.35
2023-05-14T14:53:40.444Z,144.40
2023-05-14T14:56:07.099Z,149.00
2023-05-14T14:58:33.638Z,80.70
2023-05-14T15:01:01.103Z,131.30
2023-05-14T15:18:10.196Z,126.65
2023-05-14T15:42:41.860Z,129.05
2023-05-14T15:45:10.084Z,102.20
2023-05-14T15:47:36.597Z,139.85
2023-05-14T15:50:03.811Z,144.80
2023-05-14T15:52:30.767Z,147.00
2023-05-14T15:54:57.479Z,149.10
2023-05-14T15:57:24.077Z,136.50
2023-05-14T16:04:49.426Z,154.40
2023-05-14T16:07:16.008Z,151.87
2023-05-14T17:15:53.020Z,116.30
2023-05-14T17:18:19.645Z,118.90
2023-05-14T17:20:46.307Z,124.50
2023-05-14T17:23:13.486Z,137.60
2023-05-14T17:25:39.957Z,119.33
2023-05-14T17:28:06.602Z,114.75
2023-05-14T17:30:33.106Z,118.37
2023-05-14T17:32:59.864Z,121.60
2023-05-14T17:35:26.549Z,114.37
2023-05-14T17:37:53.102Z,117.10
2023-05-14T17:40:19.844Z,110.77
2023-05-14T17:42:46.766Z,110.97
2023-05-14T17:45:14.447Z,119.55
2023-05-14T17:47:41.051Z,117.40
2023-05-14T17:50:08.103Z,122.03
2023-05-14T17:52:34.624Z,116.80
2023-05-14T17:55:01.134Z,129.45
2023-05-14T18:00:24.682Z,115.65
2023-05-14T18:02:51.195Z,114.30
2023-05-14T18:05:20.468Z,114.60
2023-05-14T18:07:47.192Z,114.03
2023-05-14T18:10:13.828Z,114.25
2023-05-14T18:12:40.358Z,115.47
2023-05-14T18:15:07.435Z,116.50
2023-05-14T18:17:34.034Z,116.65
2023-05-14T18:20:00.638Z,121.65
2023-05-14T18:22:27.136Z,122.50
2023-05-14T18:24:53.622Z,124.40
2023-05-14T18:27:20.116Z,123.53
2023-05-14T18:29:46.700Z,123.30
2023-05-14T18:32:13.172Z,128.80
2023-05-14T18:34:39.686Z,128.70
2023-05-14T18:37:07.328Z,90.80
2023-05-14T18:42:00.748Z,167.40
2023-05-14T18:44:27.517Z,171.93
2023-05-14T18:46:54.987Z,161.70
2023-05-14T18:49:21.910Z,160.30
2023-05-14T18:51:48.450Z,160.53
2023-05-14T18:54:14.956Z,155.03
2023-05-14T18:56:46.060Z,132.50
2023-05-14T18:59:13.955Z,129.13
2023-05-14T19:01:40.632Z,128.10
2023-05-14T19:04:07.377Z,127.00
2023-05-14T19:06:34.069Z,127.60
2023-05-14T19:09:00.921Z,156.25
2023-05-14T19:11:27.406Z,125.90
2023-05-14T19:13:53.893Z,122.60
2023-05-14T19:16:21.229Z,111.55
2023-05-14T19:18:48.360Z,123.50
2023-05-14T19:21:15.321Z,125.13
2023-05-14T19:23:41.912Z,85.05
2023-05-14T19:26:08.392Z,118.70
2023-05-14T19:28:37.795Z,126.05
2023-05-14T19:31:05.338Z,127.00
2023-05-14T19:33:31.877Z,122.80
2023-05-14T19:38:25.260Z,129.65
2023-05-14T19:40:53.444Z,128.57
2023-05-14T19:43:20.935Z,128.00
2023-05-14T19:45:47.470Z,129.35
2023-05-14T19:48:15.825Z,129.80
2023-05-14T19:50:42.299Z,130.60
2023-05-14T19:53:08.803Z,127.10
2023-05-14T19:55:35.346Z,120.00
2023-05-14T19:58:02.117Z,113.40
2023-05-14T20:00:28.640Z,120.65
2023-05-14T20:02:56.612Z,131.00
2023-05-14T20:05:23.246Z,131.50
2023-05-14T20:07:50.094Z,132.10
2023-05-14T20:10:16.597Z,128.45
2023-05-14T20:12:43.098Z,129.90
2023-05-14T20:15:09.988Z,129.63
2023-05-14T20:17:38.018Z,132.43
2023-05-14T20:20:06.778Z,131.67
2023-05-14T20:22:33.504Z,131.00
2023-05-14T20:25:00.047Z,131.35
2023-05-14T20:27:26.541Z,130.60
2023-05-14T20:29:54.071Z,131.50
2023-05-14T20:32:24.940Z,129.85
2023-05-14T20:37:19.780Z,197.35
2023-05-14T20:39:46.677Z,105.20
2023-05-14T20:42:13.213Z,104.60
2023-05-14T20:44:39.922Z,98.10
2023-05-14T20:47:06.564Z,75.17
2023-05-14T20:49:33.340Z,77.75
2023-05-14T20:51:59.834Z,84.35
2023-05-14T20:54:26.306Z,118.00
2023-05-14T20:56:52.785Z,95.35
2023-05-14T20:59:19.771Z,90.40
2023-05-14T21:01:46.305Z,82.90
2023-05-14T21:04:13.227Z,82.35
2023-05-14T21:06:39.876Z,108.70
2023-05-14T21:09:06.346Z,90.63
2023-05-14T21:11:32.827Z,129.95
2023-05-14T21:13:59.394Z,138.40
2023-05-14T21:16:25.972Z,138.20
2023-05-14T21:18:52.497Z,137.20
2023-05-14T21:21:19.010Z,138.70
2023-05-14T21:23:45.713Z,141.70
2023-05-14T21:26:12.207Z,154.40
2023-05-14T21:28:38.658Z,155.00
2023-05-14T21:31:05.295Z,157.60
2023-05-14T21:33:31.794Z,166.10
2023-05-14T21:35:58.357Z,143.13
2023-05-14T21:38:25.215Z,143.45
2023-05-14T21:40:51.731Z,150.30
2023-05-14T21:43:18.293Z,157.50
2023-05-14T21:45:46.010Z,157.80
2023-05-14T21:48:12.821Z,158.20
2023-05-14T21:50:39.512Z,155.00
2023-05-14T21:53:06.110Z,155.55
2023-05-14T21:55:32.637Z,166.90
2023-05-14T21:57:59.362Z,180.80
2023-05-14T22:00:25.932Z,174.90
2023-05-14T22:02:53.170Z,140.85
2023-05-14T22:05:20.146Z,183.95
2023-05-14T22:07:47.061Z,156.87
2023-05-14T22:10:14.334Z,162.55
2023-05-14T22:12:41.908Z,150.57
2023-05-14T22:15:09.662Z,144.15
2023-05-14T22:17:36.514Z,146.20
2023-05-14T22:20:06.688Z,151.90
2023-05-14T22:22:34.617Z,154.80
2023-05-14T22:25:01.187Z,162.70
2023-05-14T22:27:27.755Z,168.75
2023-05-14T22:29:55.291Z,167.07
2023-05-14T22:32:22.014Z,149.65
2023-05-14T22:34:48.601Z,157.10
2023-05-14T22:37:15.633Z,156.70
2023-05-14T22:39:42.720Z,153.05
2023-05-14T22:42:09.238Z,151.70
2023-05-14T22:44:36.975Z,158.40
2023-05-14T22:47:07.275Z,147.83
2023-05-14T22:49:33.970Z,149.50
2023-05-14T22:52:00.518Z,175.00
2023-05-14T22:54:27.033Z,169.80
2023-05-14T22:56:53.585Z,158.80
2023-05-14T22:59:21.569Z,158.00
2023-05-14T23:01:50.043Z,161.00
2023-05-14T23:04:16.643Z,155.53
2023-05-14T23:06:43.356Z,144.30
2023-05-14T23:09:09.879Z,162.87
2023-05-14T23:11:36.355Z,159.77
2023-05-14T23:14:02.977Z,188.90
2023-05-14T23:16:29.437Z,199.40
2023-05-14T23:18:56.081Z,182.97
2023-05-14T23:21:23.545Z,151.53
2023-05-14T23:23:50.048Z,152.87
2023-05-14T23:26:16.518Z,147.55
2023-05-14T23:28:43.027Z,144.50
2023-05-14T23:31:09.715Z,146.00
2023-05-14T23:33:36.322Z,143.75
2023-05-14T23:36:03.130Z,142.47
2023-05-14T23:38:29.676Z,147.05
2023-05-14T23:40:56.166Z,154.70
2023-05-14T23:43:23.573Z,148.75
2023-05-14T23:45:50.113Z,150.30
2023-05-14T23:48:18.142Z,152.00
2023-05-14T23:50:44.765Z,146.65
2023-05-14T23:53:11.359Z,147.60
2023-05-14T23:55:37.890Z,146.60
2023-05-14T23:58:04.887Z,147.00
